Time;durP1;ratioP1;P1;durP2;ratioP2;P2;SDS_P1;SDS_P2;PMS_P1;PMS_P2;Temp;Humidity;BMP_temperature;BMP_pressure;BME280_temperature;BME280_humidity;BME280_pressure;Samples;Min_cycle;Max_cycle;Signal;HPM_P1;HPM_P2
2022/11/12 00:00:31;;;;;;;15.13;9.40;;;;;;;42.42;33.68;101157.34;5033620;28;20938;-75
2022/11/12 00:02:57;;;;;;;13.77;6.97;;;;;;;42.12;34.34;101133.59;5033516;28;20457;-74
2022/11/12 00:05:24;;;;;;;18.67;7.03;;;;;;;42.17;34.21;101143.53;5033404;28;20986;-74
2022/11/12 00:07:50;;;;;;;31.03;8.60;;;;;;;42.26;34.03;101133.38;5033410;28;20465;-75
2022/11/12 00:10:16;;;;;;;22.47;8.10;;;;;;;42.45;34.04;101135.66;5033486;28;20447;-76
2022/11/12 00:12:43;;;;;;;27.33;8.13;;;;;;;42.25;34.14;101134.53;5033596;28;20443;-76
2022/11/12 00:15:10;;;;;;;17.60;8.50;;;;;;;42.15;34.44;101132.13;5033652;28;20994;-75
2022/11/12 00:17:36;;;;;;;21.33;8.13;;;;;;;41.73;34.71;101123.00;5033495;28;20514;-74
2022/11/12 00:20:03;;;;;;;14.20;7.63;;;;;;;42.20;34.21;101118.34;5033319;28;20451;-75
2022/11/12 00:22:29;;;;;;;15.13;9.10;;;;;;;42.42;33.94;101119.97;5033297;28;20489;-75
2022/11/12 00:24:55;;;;;;;17.47;8.33;;;;;;;42.22;34.18;101113.34;5053155;28;20477;-75
2022/11/12 00:27:21;;;;;;;16.50;7.63;;;;;;;42.31;34.24;101111.38;5036423;28;20541;-75
2022/11/12 00:29:47;;;;;;;13.20;10.07;;;;;;;42.28;33.96;101114.75;5036288;28;20430;-74
2022/11/12 00:32:13;;;;;;;17.83;6.83;;;;;;;42.34;33.84;101104.47;5036344;28;20418;-74
2022/11/12 00:34:39;;;;;;;23.90;7.37;;;;;;;42.44;33.95;101097.81;5035855;28;20824;-72
2022/11/12 00:37:05;;;;;;;15.30;7.50;;;;;;;42.37;33.61;101103.81;5037021;28;20980;-73
2022/11/12 00:39:32;;;;;;;14.03;6.80;;;;;;;42.14;34.11;101108.72;5032878;28;20427;-73
2022/11/12 00:41:58;;;;;;;14.13;7.67;;;;;;;42.30;34.13;101100.81;5016295;28;20505;-73
2022/11/12 00:44:24;;;;;;;11.87;7.03;;;;;;;42.05;34.15;101100.63;5016339;28;20412;-73
2022/11/12 00:46:50;;;;;;;14.37;6.63;;;;;;;42.12;34.25;101097.38;5032692;28;20467;-73
2022/11/12 00:49:16;;;;;;;12.70;6.30;;;;;;;42.17;33.96;101083.56;5016042;28;20450;-75
2022/11/12 00:51:43;;;;;;;15.37;7.27;;;;;;;42.24;34.02;101086.56;5016528;28;20420;-73
2022/11/12 00:54:09;;;;;;;17.43;7.43;;;;;;;42.28;33.85;101083.97;5032441;28;20455;-73
2022/11/12 00:56:35;;;;;;;11.43;7.43;;;;;;;42.22;34.25;101083.38;5032628;28;20451;-73
2022/11/12 00:59:01;;;;;;;16.20;8.40;;;;;;;41.92;34.48;101077.09;5032396;28;20479;-73
2022/11/12 01:01:27;;;;;;;15.80;7.63;;;;;;;41.98;34.70;101077.72;5032601;28;20466;-73
2022/11/12 01:03:53;;;;;;;21.30;6.20;;;;;;;41.80;34.96;101068.84;5032950;28;20459;-73
2022/11/12 01:06:21;;;;;;;26.40;8.83;;;;;;;42.04;34.24;101066.28;5032232;28;20993;-74
2022/11/12 01:08:48;;;;;;;15.83;7.07;;;;;;;42.10;34.25;101056.00;5015933;28;20462;-77
2022/11/12 01:11:26;;;;;;;10.83;5.37;;;;;;;42.08;34.64;101056.34;5039965;28;20461;-75
2022/11/12 01:14:02;;;;;;;18.37;6.77;;;;;;;42.07;34.38;101051.22;5053636;28;20497;-75
2022/11/12 01:16:33;;;;;;;16.43;7.70;;;;;;;42.15;34.42;101042.19;5035459;28;20480;-75
2022/11/12 01:19:01;;;;;;;16.30;8.20;;;;;;;42.16;34.07;101051.16;5035340;28;20433;-75
2022/11/12 01:21:29;;;;;;;17.47;8.00;;;;;;;42.05;34.14;101045.28;5035352;28;21012;-75
2022/11/12 01:23:58;;;;;;;13.80;7.63;;;;;;;42.08;34.30;101041.91;5031953;28;20562;-75
2022/11/12 01:26:27;;;;;;;11.50;6.60;;;;;;;41.95;34.90;101041.03;5031813;28;20466;-75
2022/11/12 01:28:54;;;;;;;9.30;5.50;;;;;;;41.92;34.58;101036.22;5031971;28;20463;-75
2022/11/12 01:31:32;;;;;;;13.80;6.60;;;;;;;42.08;34.26;101031.81;5031899;28;20490;-75
2022/11/12 01:34:02;;;;;;;12.93;6.60;;;;;;;42.04;34.61;101038.25;5031735;28;20922;-75
2022/11/12 01:36:32;;;;;;;13.43;7.30;;;;;;;42.07;34.51;101021.25;5030277;28;20626;-75
2022/11/12 01:38:58;;;;;;;11.67;6.70;;;;;;;42.16;34.44;101019.28;5020628;28;20460;-76
2022/11/12 01:41:28;;;;;;;12.03;6.27;;;;;;;42.13;34.26;101026.16;5028543;28;20428;-75
2022/11/12 01:44:19;;;;;;;22.33;7.13;;;;;;;42.23;34.52;101021.47;5013696;28;20404;-75
2022/11/12 01:47:09;;;;;;;20.63;7.17;;;;;;;41.91;34.56;101021.00;5006830;28;20626;-75
2022/11/12 01:49:52;;;;;;;12.40;7.00;;;;;;;42.04;34.72;101016.44;5028362;28;20428;-75
2022/11/12 01:52:48;;;;;;;18.47;7.77;;;;;;;42.05;34.33;101012.59;5011791;28;20448;-74
2022/11/12 01:55:19;;;;;;;15.30;8.10;;;;;;;42.26;34.09;101018.09;5011792;28;20840;-76
2022/11/12 01:57:50;;;;;;;16.67;7.17;;;;;;;42.28;34.33;101011.16;5028252;28;20511;-75
2022/11/12 02:00:16;;;;;;;17.43;6.73;;;;;;;42.16;34.59;101008.38;5011809;28;20428;-75
2022/11/12 02:02:50;;;;;;;14.43;6.63;;;;;;;41.90;35.27;101007.72;5011860;28;20976;-76
2022/11/12 02:05:17;;;;;;;21.90;10.07;;;;;;;42.03;35.16;101012.13;5028373;28;20424;-75
2022/11/12 02:07:46;;;;;;;17.33;7.83;;;;;;;42.22;34.64;101008.97;5027904;28;20499;-75
2022/11/12 02:10:13;;;;;;;16.53;8.10;;;;;;;42.06;34.31;101008.75;5028048;28;20938;-77
2022/11/12 02:15:25;;;;;;;17.07;9.17;;;;;;;42.25;34.29;101005.59;5031579;28;20450;-73
2022/11/12 02:17:52;;;;;;;12.47;6.97;;;;;;;42.23;34.34;101005.91;5031316;28;20495;-73
2022/11/12 02:20:18;;;;;;;18.70;6.73;;;;;;;42.18;34.25;100997.94;5032858;28;20543;-73
2022/11/12 02:22:44;;;;;;;13.20;7.50;;;;;;;42.13;34.38;101009.00;5031741;28;20515;-73
2022/11/12 02:25:15;;;;;;;21.13;8.10;;;;;;;42.05;34.81;100997.06;5033737;28;20465;-73
2022/11/12 02:27:43;;;;;;;15.03;7.30;;;;;;;42.19;34.44;101004.19;5052143;28;20965;-73
2022/11/12 02:30:09;;;;;;;15.83;7.20;;;;;;;42.05;34.65;101007.97;5034456;28;20501;-73
2022/11/12 02:32:35;;;;;;;16.00;7.80;;;;;;;41.92;34.18;101008.19;5034619;28;20426;-73
2022/11/12 02:35:01;;;;;;;10.53;6.83;;;;;;;42.04;34.29;101009.06;5034587;28;20435;-73
2022/11/12 02:37:27;;;;;;;13.80;7.40;;;;;;;42.18;34.15;101011.56;5034385;28;20419;-73
2022/11/12 02:39:53;;;;;;;11.83;6.73;;;;;;;42.04;34.44;101011.00;5034416;28;20415;-72
2022/11/12 02:42:19;;;;;;;15.03;8.50;;;;;;;42.09;34.45;101008.06;5034590;28;20516;-73
2022/11/12 02:44:45;;;;;;;22.40;9.60;;;;;;;42.01;34.63;101000.78;5034331;28;20418;-73
2022/11/12 02:47:11;;;;;;;18.07;6.87;;;;;;;41.97;34.74;100994.38;5034237;28;20447;-73
2022/11/12 02:49:37;;;;;;;14.50;9.07;;;;;;;41.86;34.81;100989.31;5034846;28;20418;-73
2022/11/12 02:52:03;;;;;;;13.83;8.13;;;;;;;41.78;34.49;100992.88;5034302;28;20557;-72
2022/11/12 02:54:29;;;;;;;14.33;7.07;;;;;;;42.10;34.09;100987.84;5052210;28;20192;-74
2022/11/12 02:56:55;;;;;;;14.80;7.33;;;;;;;42.08;33.86;100998.31;5034296;28;20411;-73
2022/11/12 02:59:21;;;;;;;14.43;6.20;;;;;;;41.96;34.19;101000.97;5035991;28;20426;-72
2022/11/12 03:01:47;;;;;;;18.80;9.47;;;;;;;42.02;33.99;100988.72;5038289;28;20230;-73
2022/11/12 03:04:13;;;;;;;18.77;9.73;;;;;;;41.96;34.01;100996.31;5037989;28;20449;-73
2022/11/12 03:06:39;;;;;;;11.07;6.20;;;;;;;42.10;34.07;101002.28;5037873;28;20285;-73
2022/11/12 03:09:05;;;;;;;18.37;9.57;;;;;;;42.10;34.09;100998.75;5037973;28;20505;-75
2022/11/12 03:11:31;;;;;;;16.00;7.10;;;;;;;42.17;34.17;100999.06;5037671;28;20551;-72
2022/11/12 03:13:57;;;;;;;12.70;7.07;;;;;;;42.10;34.18;101007.72;5038071;28;20721;-72
2022/11/12 03:16:22;;;;;;;16.20;7.13;;;;;;;42.13;34.19;101000.84;5037805;28;20998;-75
2022/11/12 03:18:48;;;;;;;22.83;7.77;;;;;;;42.32;34.07;101006.63;5037824;28;20468;-73
2022/11/12 03:21:14;;;;;;;17.47;10.33;;;;;;;42.26;34.29;101001.72;5037735;28;20301;-73
2022/11/12 03:23:40;;;;;;;26.53;13.23;;;;;;;41.55;36.21;100994.28;5055680;28;20410;-72
2022/11/12 03:26:06;;;;;;;15.50;11.53;;;;;;;41.44;35.84;100991.16;5037391;28;20524;-73
2022/11/12 03:28:32;;;;;;;23.10;12.23;;;;;;;41.64;36.35;100992.31;5037909;28;20576;-73
2022/11/12 03:30:59;;;;;;;14.80;11.30;;;;;;;41.84;35.38;100988.84;5037491;28;20204;-75
2022/11/12 03:33:25;;;;;;;27.83;13.17;;;;;;;41.62;36.07;100983.69;5055620;28;20406;-75
2022/11/12 03:35:51;;;;;;;26.10;15.37;;;;;;;41.61;35.85;100988.31;5037571;28;20422;-74
2022/11/12 03:38:17;;;;;;;33.60;13.80;;;;;;;41.68;36.28;100987.00;5037366;28;20410;-75
2022/11/12 03:40:43;;;;;;;18.80;12.63;;;;;;;41.68;36.26;100987.81;5037289;28;20425;-75
2022/11/12 03:43:09;;;;;;;19.57;15.40;;;;;;;41.05;36.74;100968.50;5037250;28;20770;-74
2022/11/12 03:45:35;;;;;;;20.67;14.07;;;;;;;40.71;37.50;100966.66;5037348;28;20484;-75
2022/11/12 03:48:01;;;;;;;19.40;14.70;;;;;;;40.65;37.91;100973.41;5037110;28;20865;-75
2022/11/12 03:50:28;;;;;;;21.93;14.17;;;;;;;40.67;37.97;100986.66;5037249;28;20425;-75
2022/11/12 03:52:58;;;;;;;21.00;13.47;;;;;;;41.12;37.53;100978.91;5055393;28;20788;-74
2022/11/12 03:55:27;;;;;;;17.90;12.93;;;;;;;41.30;36.46;100985.06;5055172;28;20491;-74
2022/11/12 03:57:55;;;;;;;17.00;13.70;;;;;;;41.47;36.42;100989.69;5037114;28;20459;-75
2022/11/12 04:00:22;;;;;;;18.23;14.80;;;;;;;41.56;36.42;100985.78;5037244;28;20419;-75
2022/11/12 04:02:48;;;;;;;25.03;14.20;;;;;;;41.46;36.13;100986.16;5037019;28;20421;-75
2022/11/12 04:10:51;;;;;;;20.63;13.33;;;;;;;41.72;36.15;100994.19;5054593;28;20512;-75
2022/11/12 04:13:26;;;;;;;25.03;18.17;;;;;;;41.67;36.11;101007.19;5036527;28;20429;-75
2022/11/12 04:21:55;;;;;;;35.80;20.83;;;;;;;42.00;35.51;101008.16;5054642;28;20446;-75
2022/11/12 04:27:17;;;;;;;31.60;18.67;;;;;;;42.05;35.79;101015.31;5034479;28;20997;-75
2022/11/12 04:32:30;;;;;;;27.13;17.10;;;;;;;42.12;35.67;101030.03;5034698;28;20394;-75
2022/11/12 04:34:56;;;;;;;25.67;16.93;;;;;;;42.15;35.46;101031.28;5033067;28;20940;-75
2022/11/12 04:37:24;;;;;;;30.23;16.77;;;;;;;42.17;35.11;101037.22;5032920;28;20412;-75
2022/11/12 04:39:50;;;;;;;23.90;17.57;;;;;;;42.09;35.29;101040.78;5034611;28;20392;-75
2022/11/12 04:47:34;;;;;;;24.10;18.87;;;;;;;42.03;35.48;101045.63;5033972;28;20518;-74
2022/11/12 04:50:01;;;;;;;51.13;20.90;;;;;;;41.69;36.15;101037.63;5032731;28;20562;-75
2022/11/12 04:52:29;;;;;;;28.20;21.00;;;;;;;41.61;36.24;101040.06;5032654;28;20495;-75
2022/11/12 04:54:55;;;;;;;37.27;22.63;;;;;;;41.66;36.27;101039.06;5032654;28;20431;-75
2022/11/12 04:57:21;;;;;;;27.80;23.83;;;;;;;41.48;36.12;101049.25;5032523;28;20469;-74
2022/11/12 04:59:47;;;;;;;32.33;21.87;;;;;;;41.78;36.11;101055.53;5032426;28;20418;-75
2022/11/12 05:02:15;;;;;;;32.00;21.80;;;;;;;41.86;35.92;101059.34;5032542;28;20415;-77
2022/11/12 05:04:41;;;;;;;33.20;25.00;;;;;;;42.00;35.43;101064.56;5032594;28;20515;-75
2022/11/12 05:07:07;;;;;;;37.70;25.47;;;;;;;42.08;35.35;101066.44;5032309;28;20542;-74
2022/11/12 05:09:33;;;;;;;51.13;26.93;;;;;;;42.05;35.33;101061.63;5032348;28;20416;-75
2022/11/12 05:12:00;;;;;;;29.50;24.07;;;;;;;42.15;35.05;101055.81;5040102;28;20439;-73
2022/11/12 05:14:26;;;;;;;30.07;24.03;;;;;;;42.17;35.21;101064.47;5041381;28;20794;-73
2022/11/12 05:16:52;;;;;;;34.37;20.60;;;;;;;42.00;35.39;101080.94;5034780;28;20418;-74
2022/11/12 05:19:18;;;;;;;19.73;10.57;;;;;;;41.67;32.28;101062.47;5031281;28;20956;-77
2022/11/12 05:24:30;;;;;;;11.93;7.53;;;;;;;41.30;31.06;101064.00;5037090;28;21022;-75
2022/11/12 05:26:55;;;;;;;19.20;8.07;;;;;;;41.25;31.39;101066.91;5033999;28;20462;-75
2022/11/12 05:29:21;;;;;;;15.40;8.30;;;;;;;41.24;31.19;101054.41;5035334;28;20422;-76
2022/11/12 05:31:47;;;;;;;14.13;8.30;;;;;;;41.21;30.88;101050.44;5034798;28;20250;-74
2022/11/12 05:34:13;;;;;;;12.50;7.17;;;;;;;41.10;30.82;101048.38;5034166;28;20429;-77
2022/11/12 05:36:39;;;;;;;23.77;8.07;;;;;;;40.76;31.03;101031.78;5033355;28;20799;-77
2022/11/12 05:39:05;;;;;;;19.17;9.30;;;;;;;40.32;32.29;101029.34;5033222;28;20414;-75
2022/11/12 05:41:31;;;;;;;22.20;8.47;;;;;;;40.48;32.71;101027.78;5033869;28;20418;-75
2022/11/12 05:43:57;;;;;;;17.47;8.20;;;;;;;40.56;32.36;101051.44;5050998;28;20391;-76
2022/11/12 05:46:23;;;;;;;19.13;8.83;;;;;;;40.79;32.22;101076.56;5032882;28;20446;-78
2022/11/12 05:48:49;;;;;;;16.73;9.60;;;;;;;41.01;31.98;101078.34;5034166;28;20419;-75
2022/11/12 05:51:15;;;;;;;81.93;36.40;;;;;;;41.03;31.50;101082.34;5034941;28;20448;-75
2022/11/12 05:53:42;;;;;;;82.83;46.67;;;;;;;41.30;31.15;101088.50;5034862;28;20418;-75
2022/11/12 05:56:09;;;;;;;55.40;32.33;;;;;;;41.33;30.75;101090.63;5034865;28;20415;-75
2022/11/12 05:58:37;;;;;;;25.93;13.90;;;;;;;41.37;31.39;101101.66;5035058;28;20438;-74
2022/11/12 06:01:03;;;;;;;20.00;10.00;;;;;;;41.38;31.18;101109.53;5052899;28;20442;-74
2022/11/12 06:03:30;;;;;;;17.50;10.33;;;;;;;41.41;31.61;101105.34;5034811;28;20878;-74
2022/11/12 06:05:56;;;;;;;15.67;8.57;;;;;;;41.44;31.77;101102.78;5034763;28;20414;-76
2022/11/12 06:08:22;;;;;;;15.03;8.70;;;;;;;41.47;31.25;101095.88;5034568;28;20460;-75
2022/11/12 06:10:48;;;;;;;17.10;7.77;;;;;;;41.49;31.21;101099.84;5034557;28;22592;-73
2022/11/12 06:13:15;;;;;;;17.90;9.40;;;;;;;41.51;31.69;101099.53;5034501;28;20446;-75
2022/11/12 06:15:41;;;;;;;19.63;8.03;;;;;;;41.56;31.36;101110.28;5034744;28;20415;-75
2022/11/12 06:18:07;;;;;;;16.80;8.37;;;;;;;41.53;31.23;101100.81;5034498;28;20411;-76
2022/11/12 06:20:34;;;;;;;25.80;9.50;;;;;;;41.57;31.19;101106.41;5034596;28;20421;-75
2022/11/12 06:23:00;;;;;;;15.87;8.03;;;;;;;41.56;31.51;101102.09;5033258;28;20495;-72
2022/11/12 06:25:26;;;;;;;14.73;7.80;;;;;;;41.56;31.34;101096.66;5032708;28;20984;-75
2022/11/12 06:27:53;;;;;;;17.43;7.10;;;;;;;41.50;31.91;101097.97;5044056;28;20461;-74
2022/11/12 06:30:19;;;;;;;32.70;20.73;;;;;;;41.53;31.77;101094.56;5032591;28;20488;-76
2022/11/12 06:32:46;;;;;;;26.87;16.77;;;;;;;41.51;32.04;101108.50;5051313;28;20188;-77
2022/11/12 06:35:12;;;;;;;18.77;11.73;;;;;;;41.51;31.49;101110.44;5019776;28;20488;-74
2022/11/12 06:37:38;;;;;;;14.23;8.77;;;;;;;41.55;32.08;101116.81;5038280;28;20501;-75
2022/11/12 06:40:05;;;;;;;13.23;6.53;;;;;;;41.56;31.70;101115.72;5036633;28;21025;-76
2022/11/12 06:42:31;;;;;;;9.20;5.87;;;;;;;41.62;31.70;101128.03;5038049;28;20419;-77
2022/11/12 06:44:58;;;;;;;16.00;5.83;;;;;;;41.62;31.77;101114.41;5036525;28;20432;-75
2022/11/12 06:47:24;;;;;;;15.03;5.10;;;;;;;41.73;32.01;101131.19;5037177;28;20457;-75
2022/11/12 06:49:53;;;;;;;16.80;6.93;;;;;;;41.69;31.39;101130.25;5035785;28;20422;-74
2022/11/12 06:52:25;;;;;;;7.60;5.30;;;;;;;41.60;31.62;101133.78;5054363;28;20968;-74
2022/11/12 06:54:51;;;;;;;10.57;5.83;;;;;;;41.63;31.65;101131.56;5036018;28;20466;-73
2022/11/12 06:57:17;;;;;;;15.40;8.43;;;;;;;41.60;32.44;101125.63;5036213;28;20458;-75
2022/11/12 06:59:43;;;;;;;17.27;8.17;;;;;;;41.66;31.75;101123.50;5036913;28;20446;-73
2022/11/12 07:02:11;;;;;;;21.70;8.97;;;;;;;41.72;32.52;101122.22;5037282;28;20426;-74
2022/11/12 07:04:39;;;;;;;19.63;10.20;;;;;;;41.79;32.44;101127.19;5037438;28;20423;-75
2022/11/12 07:07:04;;;;;;;19.83;14.07;;;;;;;41.73;32.13;101140.16;5037427;28;21015;-75
2022/11/12 07:09:30;;;;;;;26.50;15.20;;;;;;;41.69;31.98;101152.84;5037454;28;20446;-74
2022/11/12 07:11:58;;;;;;;23.17;13.93;;;;;;;41.21;32.26;101162.03;5021044;28;20438;-75
2022/11/12 07:14:24;;;;;;;24.33;14.43;;;;;;;41.44;32.21;101161.88;5037869;28;20446;-74
2022/11/12 07:16:50;;;;;;;20.37;13.03;;;;;;;41.58;32.09;101174.16;5037104;28;20419;-76
2022/11/12 07:19:16;;;;;;;27.87;16.63;;;;;;;41.40;31.78;101175.31;5037791;28;20176;-74
2022/11/12 07:21:42;;;;;;;28.73;13.93;;;;;;;40.98;32.82;101187.81;5060524;28;20865;-75
2022/11/12 07:24:08;;;;;;;22.80;15.93;;;;;;;41.21;32.50;101191.19;5048329;28;20417;-75
2022/11/12 07:26:34;;;;;;;29.43;17.93;;;;;;;41.34;32.19;101199.19;5047434;28;20208;-75
2022/11/12 07:29:00;;;;;;;43.50;17.03;;;;;;;41.54;31.85;101200.44;5039016;28;20533;-74
2022/11/12 07:31:26;;;;;;;23.13;15.80;;;;;;;41.68;31.89;101215.78;5036674;28;20453;-74
2022/11/12 07:33:52;;;;;;;23.97;18.63;;;;;;;41.77;31.91;101222.84;5050389;28;20509;-75
2022/11/12 07:36:19;;;;;;;22.30;15.60;;;;;;;41.82;31.44;101211.78;5045922;28;20463;-75
2022/11/12 07:38:49;;;;;;;21.40;14.57;;;;;;;41.90;31.53;101214.81;5056390;28;20468;-76
2022/11/12 07:41:18;;;;;;;21.43;13.80;;;;;;;41.96;31.86;101213.50;5037351;28;20415;-74
2022/11/12 07:43:45;;;;;;;15.90;11.40;;;;;;;42.02;31.61;101217.66;5038466;28;20457;-74
2022/11/12 07:46:14;;;;;;;20.80;12.93;;;;;;;42.10;31.35;101214.09;5056464;28;20466;-73
2022/11/12 07:48:43;;;;;;;17.10;12.27;;;;;;;42.16;31.41;101211.97;5052807;28;20426;-76
2022/11/12 07:51:14;;;;;;;22.73;14.03;;;;;;;42.19;31.14;101209.44;5054359;28;20407;-75
2022/11/12 07:53:41;;;;;;;18.57;11.40;;;;;;;41.87;31.47;101208.09;5034546;28;20828;-76
2022/11/12 07:56:10;;;;;;;23.80;13.27;;;;;;;41.48;31.54;101200.94;5031270;28;20450;-76
2022/11/12 07:58:37;;;;;;;28.90;13.47;;;;;;;41.52;31.20;101199.19;5033572;28;21057;-74
2022/11/12 08:01:08;;;;;;;25.33;12.23;;;;;;;41.55;30.56;101210.22;5033728;28;20438;-73
2022/11/12 08:03:34;;;;;;;37.50;14.10;;;;;;;41.71;31.07;101199.59;5031630;28;20422;-76
2022/11/12 08:06:01;;;;;;;26.33;14.43;;;;;;;42.00;30.35;101201.63;5033956;28;20496;-74
2022/11/12 08:08:27;;;;;;;18.97;13.37;;;;;;;42.14;29.89;101209.59;5034891;28;20948;-73
2022/11/12 08:10:57;;;;;;;33.70;14.67;;;;;;;41.86;30.49;101206.47;5035361;28;20438;-73
2022/11/12 08:13:23;;;;;;;22.60;16.10;;;;;;;41.97;30.00;101209.66;5053285;28;20953;-74
2022/11/12 08:15:50;;;;;;;25.50;13.77;;;;;;;42.07;29.43;101217.47;5032801;28;20439;-74
2022/11/12 08:18:16;;;;;;;23.57;15.97;;;;;;;41.91;29.36;101219.13;5035889;28;20509;-74
2022/11/12 08:20:42;;;;;;;19.70;14.27;;;;;;;42.21;29.10;101220.81;5036853;28;20497;-74
2022/11/12 08:23:09;;;;;;;23.80;13.87;;;;;;;42.37;29.00;101221.06;5036400;28;20422;-73
2022/11/12 08:25:35;;;;;;;25.10;14.37;;;;;;;42.44;29.28;101221.34;5053584;28;20474;-74
2022/11/12 08:28:02;;;;;;;17.00;12.27;;;;;;;42.33;28.82;101220.09;5035445;28;20465;-74
2022/11/12 08:30:29;;;;;;;18.83;14.13;;;;;;;42.05;29.21;101225.16;5054009;28;20407;-74
2022/11/12 08:33:03;;;;;;;27.20;15.00;;;;;;;42.44;28.94;101226.00;5036406;28;20445;-73
2022/11/12 08:35:30;;;;;;;23.27;14.30;;;;;;;42.57;29.13;101223.06;5035289;28;20434;-77
2022/11/12 08:37:58;;;;;;;20.87;14.50;;;;;;;42.72;29.12;101218.94;5035786;28;20434;-81
2022/11/12 08:40:25;;;;;;;20.10;11.73;;;;;;;42.77;29.11;101218.75;5034367;28;20422;-74
2022/11/12 08:42:58;;;;;;;22.53;13.90;;;;;;;42.70;28.97;101215.75;5036249;28;20426;-73
2022/11/12 08:45:25;;;;;;;25.30;13.70;;;;;;;42.64;28.78;101211.63;5036134;28;20506;-75
2022/11/12 08:47:51;;;;;;;32.63;14.67;;;;;;;42.82;28.88;101223.22;5035763;28;20472;-73
2022/11/12 08:50:18;;;;;;;23.63;12.20;;;;;;;42.96;28.78;101222.94;5036096;28;20415;-74
2022/11/12 08:52:44;;;;;;;21.03;11.43;;;;;;;42.94;28.27;101228.75;5036254;28;20422;-76
2022/11/12 08:55:10;;;;;;;15.60;9.80;;;;;;;42.89;27.75;101229.72;5054433;28;20418;-74
2022/11/12 08:57:43;;;;;;;16.13;10.43;;;;;;;42.88;28.44;101232.81;5034908;28;20557;-74
2022/11/12 09:00:11;;;;;;;16.97;9.20;;;;;;;42.72;28.35;101221.66;5035963;28;20595;-74
2022/11/12 09:02:37;;;;;;;19.10;8.20;;;;;;;42.61;29.00;101239.56;5035781;28;20905;-74
2022/11/12 09:05:04;;;;;;;15.80;8.63;;;;;;;42.81;29.05;101236.06;5036001;28;20438;-76
2022/11/12 09:07:30;;;;;;;11.87;5.50;;;;;;;42.89;29.10;101242.56;5035708;28;20469;-74
2022/11/12 09:09:57;;;;;;;16.73;6.20;;;;;;;42.79;29.87;101246.50;5035607;28;20422;-74
2022/11/12 09:12:23;;;;;;;15.60;8.30;;;;;;;42.87;29.68;101239.41;5035302;28;20443;-74
2022/11/12 09:14:49;;;;;;;16.73;8.07;;;;;;;42.87;30.39;101242.91;5035462;28;20807;-75
2022/11/12 09:17:15;;;;;;;18.90;8.20;;;;;;;42.87;30.17;101248.38;5036332;28;20905;-75
2022/11/12 09:19:41;;;;;;;14.83;5.93;;;;;;;42.98;30.12;101250.72;5035790;28;20414;-73
2022/11/12 09:22:07;;;;;;;12.47;7.27;;;;;;;43.03;29.80;101239.59;5035347;28;20804;-71
2022/11/12 09:24:34;;;;;;;16.90;8.00;;;;;;;42.99;29.62;101244.16;5032169;28;20491;-74
2022/11/12 09:27:00;;;;;;;16.13;6.10;;;;;;;42.81;29.51;101235.25;5030795;28;20459;-75
2022/11/12 09:29:26;;;;;;;16.60;6.77;;;;;;;42.91;29.61;101241.13;5030666;28;20416;-74
2022/11/12 09:31:53;;;;;;;12.40;6.67;;;;;;;43.02;29.21;101243.47;5031144;28;20450;-77
2022/11/12 09:34:19;;;;;;;19.80;7.00;;;;;;;42.95;29.55;101235.78;5032336;28;20443;-74
2022/11/12 09:36:44;;;;;;;12.07;5.77;;;;;;;42.83;29.85;101241.97;5031850;28;20427;-74
2022/11/12 09:39:10;;;;;;;10.73;7.40;;;;;;;42.93;30.13;101236.13;5031391;28;20424;-75
2022/11/12 09:41:40;;;;;;;17.23;6.70;;;;;;;43.01;30.31;101239.16;5033307;28;20698;-74
2022/11/12 09:44:23;;;;;;;24.43;7.03;;;;;;;43.06;29.95;101236.22;5033415;28;20396;-74
2022/11/12 09:46:54;;;;;;;13.80;5.80;;;;;;;43.20;29.88;101244.94;5015539;28;20470;-74
2022/11/12 09:49:22;;;;;;;12.33;7.10;;;;;;;43.28;29.92;101246.81;5031715;28;20481;-74
2022/11/12 09:52:00;;;;;;;18.00;6.30;;;;;;;43.28;29.74;101244.09;5031618;28;20520;-75
2022/11/12 09:54:30;;;;;;;24.53;8.20;;;;;;;43.07;30.18;101243.28;5031022;28;22157;-74
2022/11/12 09:56:56;;;;;;;11.33;6.83;;;;;;;43.19;30.46;101235.94;5030993;28;20428;-75
2022/11/12 09:59:26;;;;;;;16.40;6.60;;;;;;;43.16;29.90;101231.16;5031346;28;20435;-74
2022/11/12 10:01:52;;;;;;;18.83;9.10;;;;;;;43.37;29.54;101241.25;5031464;28;20427;-74
2022/11/12 10:04:36;;;;;;;18.27;6.97;;;;;;;43.38;29.02;101229.19;5031741;28;20471;-75
2022/11/12 10:07:10;;;;;;;13.60;7.87;;;;;;;43.38;28.71;101224.56;5031286;28;20196;-74
2022/11/12 10:09:45;;;;;;;18.70;9.60;;;;;;;43.31;27.97;101213.34;5031488;28;20531;-72
